Time;durP1;ratioP1;P1;durP2;ratioP2;P2;SDS_P1;SDS_P2;PMS_P1;PMS_P2;Temp;Humidity;BMP_temperature;BMP_pressure;BME280_temperature;BME280_humidity;BME280_pressure;Samples;Min_cycle;Max_cycle;Signal;HPM_P1;HPM_P2
2022/12/10 00:01:46;;;;;;;35.53;15.27;;;;;;;-0.09;100.00;97605.28;4977411;28;20049;-72
2022/12/10 00:04:13;;;;;;;38.33;18.23;;;;;;;0.00;100.00;97628.22;4990685;28;20050;-72
2022/12/10 00:06:39;;;;;;;36.83;17.02;;;;;;;0.01;100.00;97621.91;4991313;28;20030;-72
2022/12/10 00:09:09;;;;;;;33.35;17.10;;;;;;;0.00;100.00;97612.28;4989374;28;20019;-72
2022/12/10 00:11:34;;;;;;;32.58;16.33;;;;;;;-0.07;100.00;97605.94;4989955;28;20030;-72
2022/12/10 00:13:59;;;;;;;38.03;16.35;;;;;;;0.10;100.00;97602.28;4989636;28;20032;-72
2022/12/10 00:16:27;;;;;;;32.70;15.00;;;;;;;0.19;100.00;97625.22;4987868;28;20026;-73
2022/12/10 00:18:53;;;;;;;29.15;16.00;;;;;;;0.16;100.00;97606.94;4987692;28;20037;-72
2022/12/10 00:21:23;;;;;;;31.75;15.07;;;;;;;0.38;100.00;97621.38;4990905;28;20071;-72
2022/12/10 00:23:49;;;;;;;28.83;14.90;;;;;;;0.15;100.00;97586.66;4982326;28;20426;-73
2022/12/10 00:26:17;;;;;;;28.88;14.68;;;;;;;0.27;100.00;97623.56;4986807;28;20101;-73
2022/12/10 00:28:43;;;;;;;29.73;15.40;;;;;;;0.24;100.00;97623.88;4988230;28;20507;-73
2022/12/10 00:31:12;;;;;;;32.42;15.95;;;;;;;0.14;100.00;97608.13;4991349;28;20031;-72
2022/12/10 00:33:38;;;;;;;28.40;14.75;;;;;;;0.21;100.00;97630.41;5005676;28;20027;-73
2022/12/10 00:36:10;;;;;;;34.20;15.63;;;;;;;0.16;100.00;97628.22;4990185;28;20511;-73
2022/12/10 00:38:36;;;;;;;32.47;14.48;;;;;;;0.07;100.00;97613.25;4993620;28;20022;-72
2022/12/10 00:41:03;;;;;;;30.10;15.70;;;;;;;0.01;100.00;97597.97;4981786;28;20047;-72
2022/12/10 00:43:28;;;;;;;34.20;15.32;;;;;;;0.02;100.00;97598.81;4997006;28;20065;-72
2022/12/10 00:45:54;;;;;;;31.75;15.38;;;;;;;0.07;100.00;97615.91;5000077;28;20053;-72
2022/12/10 00:48:20;;;;;;;27.33;13.95;;;;;;;0.03;100.00;97617.25;4996251;28;20030;-72
2022/12/10 00:50:57;;;;;;;32.25;15.70;;;;;;;-0.05;100.00;97603.97;4990368;28;20026;-73
2022/12/10 00:53:23;;;;;;;31.70;15.38;;;;;;;-0.01;100.00;97614.06;4990297;28;20030;-72
2022/12/10 00:55:49;;;;;;;36.53;14.40;;;;;;;-0.01;100.00;97606.09;4986681;28;20073;-73
2022/12/10 00:58:14;;;;;;;32.30;15.15;;;;;;;-0.10;100.00;97593.81;4993179;28;20038;-73
2022/12/10 01:00:39;;;;;;;30.98;14.55;;;;;;;-0.07;100.00;97595.31;4991042;28;20026;-72
2022/12/10 01:03:04;;;;;;;30.85;14.15;;;;;;;0.09;100.00;97621.91;4992124;28;20118;-72
2022/12/10 01:05:30;;;;;;;29.73;14.63;;;;;;;0.11;100.00;97603.97;4991639;28;20025;-72
2022/12/10 01:07:55;;;;;;;31.35;14.45;;;;;;;0.09;100.00;97613.94;5003035;28;20117;-72
2022/12/10 01:10:20;;;;;;;30.25;14.50;;;;;;;0.11;100.00;97619.09;4990098;28;20033;-73
2022/12/10 01:12:46;;;;;;;28.58;13.90;;;;;;;0.20;100.00;97618.91;4992849;28;20447;-72
2022/12/10 01:15:11;;;;;;;32.05;14.38;;;;;;;0.34;100.00;97635.19;5016108;28;20034;-73
2022/12/10 01:17:37;;;;;;;28.55;14.93;;;;;;;0.21;100.00;97631.22;4998879;28;20396;-72
2022/12/10 01:20:02;;;;;;;27.08;13.90;;;;;;;0.09;100.00;97634.38;4988745;28;20033;-73
2022/12/10 01:22:28;;;;;;;26.40;13.82;;;;;;;0.08;100.00;97640.66;4985081;28;20041;-73
2022/12/10 01:24:54;;;;;;;28.73;13.90;;;;;;;0.04;100.00;97645.50;4992857;28;20022;-72
2022/12/10 01:27:19;;;;;;;28.75;13.77;;;;;;;0.04;100.00;97650.00;4990164;28;20034;-72
2022/12/10 01:29:44;;;;;;;25.40;12.85;;;;;;;0.02;100.00;97638.69;4992661;28;20026;-72
2022/12/10 01:32:10;;;;;;;26.58;13.30;;;;;;;0.00;100.00;97644.19;4992659;28;20554;-72
2022/12/10 01:34:35;;;;;;;26.90;13.65;;;;;;;0.04;100.00;97648.16;4989248;28;20026;-72
2022/12/10 01:37:00;;;;;;;26.67;14.02;;;;;;;0.12;100.00;97648.16;4984729;28;20029;-72
2022/12/10 01:39:25;;;;;;;26.83;12.77;;;;;;;0.24;100.00;97661.13;4993328;28;20042;-72
2022/12/10 01:41:54;;;;;;;25.95;12.43;;;;;;;0.07;100.00;97639.84;4990824;28;20022;-72
2022/12/10 01:44:19;;;;;;;25.90;13.37;;;;;;;0.30;100.00;97671.13;5009186;28;20030;-72
2022/12/10 01:46:47;;;;;;;28.48;12.98;;;;;;;0.24;100.00;97666.44;4988434;28;20022;-72
2022/12/10 01:49:17;;;;;;;32.50;13.27;;;;;;;0.16;100.00;97669.94;4983746;28;20034;-71
2022/12/10 01:51:43;;;;;;;27.63;13.90;;;;;;;0.12;100.00;97665.94;4989274;28;20022;-72
2022/12/10 01:54:14;;;;;;;31.45;14.73;;;;;;;0.13;100.00;97673.78;4997387;28;20050;-72
2022/12/10 01:56:44;;;;;;;30.70;14.50;;;;;;;0.07;100.00;97668.28;4991149;28;20045;-72
2022/12/10 01:59:13;;;;;;;26.45;14.25;;;;;;;0.18;100.00;97675.91;4996801;28;20026;-72
2022/12/10 02:01:57;;;;;;;30.02;15.57;;;;;;;0.05;100.00;97668.41;4990477;28;20030;-72
2022/12/10 02:04:45;;;;;;;30.85;14.65;;;;;;;0.17;100.00;97684.91;4987589;28;20029;-72
2022/12/10 02:07:19;;;;;;;31.05;14.73;;;;;;;0.18;100.00;97681.22;4981089;28;20031;-72
2022/12/10 02:09:47;;;;;;;30.02;14.88;;;;;;;0.12;100.00;97681.91;4991694;28;20475;-72
2022/12/10 02:12:27;;;;;;;30.40;14.52;;;;;;;0.15;100.00;97674.41;4987591;28;20030;-72
2022/12/10 02:15:01;;;;;;;29.48;14.63;;;;;;;0.01;100.00;97664.44;4989335;28;20037;-72
2022/12/10 02:17:37;;;;;;;31.65;14.55;;;;;;;0.04;100.00;97666.78;4989845;28;20392;-72
2022/12/10 02:20:12;;;;;;;27.88;13.35;;;;;;;0.01;100.00;97675.09;4990354;28;20022;-72
2022/12/10 02:22:45;;;;;;;28.00;13.27;;;;;;;0.07;100.00;97660.28;4993276;28;20420;-72
2022/12/10 02:25:13;;;;;;;33.15;14.48;;;;;;;0.25;100.00;97660.97;4994586;28;20092;-72
2022/12/10 02:27:46;;;;;;;26.52;13.70;;;;;;;0.21;100.00;97668.47;5002866;28;20022;-72
2022/12/10 02:30:11;;;;;;;28.40;14.73;;;;;;;0.00;100.00;97638.88;4993366;28;20040;-72
2022/12/10 02:32:41;;;;;;;29.75;14.20;;;;;;;-0.10;100.00;97633.69;4988132;28;20457;-72
2022/12/10 02:35:14;;;;;;;30.50;13.57;;;;;;;0.00;100.00;97660.13;4988444;28;20029;-72
2022/12/10 02:38:02;;;;;;;27.98;14.00;;;;;;;-0.11;100.00;97653.28;4991773;28;20134;-72
2022/12/10 02:40:32;;;;;;;25.63;13.90;;;;;;;-0.21;100.00;97639.31;4982572;28;20544;-72
2022/12/10 02:42:58;;;;;;;29.08;13.63;;;;;;;-0.17;100.00;97627.38;4988160;28;20388;-72
2022/12/10 02:45:27;;;;;;;31.75;14.70;;;;;;;0.03;100.00;97635.88;4984469;28;20046;-72
2022/12/10 02:47:56;;;;;;;27.92;12.73;;;;;;;-0.18;100.00;97624.88;4999955;28;20401;-72
2022/12/10 02:50:22;;;;;;;31.85;15.18;;;;;;;-0.27;100.00;97630.16;4995086;28;20088;-72
2022/12/10 02:52:48;;;;;;;28.83;14.07;;;;;;;-0.35;100.00;97634.66;4987626;28;20030;-72
2022/12/10 02:55:13;;;;;;;28.88;13.90;;;;;;;-0.34;100.00;97649.59;4986075;28;20072;-72
2022/12/10 02:58:15;;;;;;;30.65;14.80;;;;;;;-0.39;100.00;97654.56;4991679;28;20030;-72
2022/12/10 03:01:01;;;;;;;30.33;14.68;;;;;;;-0.40;100.00;97648.41;4988792;28;20056;-72
2022/12/10 03:03:40;;;;;;;34.33;14.60;;;;;;;-0.44;100.00;97644.44;4989845;28;20116;-72
2022/12/10 03:06:35;;;;;;;30.95;14.63;;;;;;;-0.38;100.00;97650.94;4983442;28;20030;-72
2022/12/10 03:09:09;;;;;;;29.17;14.07;;;;;;;-0.42;100.00;97649.56;4987745;28;20026;-72
2022/12/10 03:11:35;;;;;;;32.30;13.73;;;;;;;-0.69;100.00;97612.47;4994383;28;20037;-72
2022/12/10 03:14:13;;;;;;;32.35;15.15;;;;;;;-0.61;100.00;97637.41;5002170;28;20026;-71
2022/12/10 03:16:43;;;;;;;30.55;15.45;;;;;;;-0.58;100.00;97637.91;4993298;28;20288;-72
2022/12/10 03:19:16;;;;;;;32.55;15.63;;;;;;;-0.69;100.00;97636.38;4986932;28;20049;-71
2022/12/10 03:21:41;;;;;;;31.63;15.35;;;;;;;-0.84;100.00;97613.25;4994329;28;20535;-72
2022/12/10 03:24:09;;;;;;;30.48;14.43;;;;;;;-0.72;100.00;97638.53;4982874;28;20109;-72
2022/12/10 03:26:36;;;;;;;34.45;14.55;;;;;;;-0.96;100.00;97615.38;4986369;28;20385;-72
2022/12/10 03:29:08;;;;;;;35.05;15.50;;;;;;;-0.91;100.00;97629.00;5005395;28;20499;-72
2022/12/10 03:31:34;;;;;;;34.40;15.52;;;;;;;-0.99;100.00;97613.06;5012489;28;20029;-72
2022/12/10 03:34:01;;;;;;;35.85;16.13;;;;;;;-1.12;100.00;97609.00;4989299;28;20026;-72
2022/12/10 03:36:28;;;;;;;31.83;14.77;;;;;;;-1.16;100.00;97615.63;4985090;28;20473;-72
2022/12/10 03:38:54;;;;;;;35.42;15.05;;;;;;;-1.11;100.00;97639.84;4988057;28;20471;-71
2022/12/10 03:41:19;;;;;;;34.72;15.73;;;;;;;-1.15;100.00;97632.41;4985839;28;20046;-72
2022/12/10 03:43:53;;;;;;;35.28;15.50;;;;;;;-1.01;100.00;97649.53;5005754;28;20026;-72
2022/12/10 03:46:20;;;;;;;32.78;15.70;;;;;;;-1.18;100.00;97622.94;4990442;28;20026;-72
2022/12/10 03:48:45;;;;;;;33.10;16.00;;;;;;;-0.99;100.00;97651.03;4992995;28;20049;-72
2022/12/10 03:51:10;;;;;;;37.65;16.02;;;;;;;-0.98;100.00;97639.41;4989164;28;20034;-72
2022/12/10 03:53:36;;;;;;;39.78;17.88;;;;;;;-0.92;100.00;97633.50;4988155;28;20488;-72
2022/12/10 03:56:01;;;;;;;38.22;16.33;;;;;;;-0.99;100.00;97615.72;4988587;28;20030;-72
2022/12/10 03:58:26;;;;;;;35.72;15.63;;;;;;;-0.73;100.00;97664.28;4997836;28;20043;-71
2022/12/10 04:00:51;;;;;;;37.50;15.65;;;;;;;-0.77;100.00;97646.16;4988326;28;20030;-72
2022/12/10 04:03:17;;;;;;;35.30;16.20;;;;;;;-0.98;100.00;97617.38;4985513;28;20030;-71
2022/12/10 04:05:42;;;;;;;33.67;15.05;;;;;;;-1.03;100.00;97624.97;5013997;28;20068;-72
2022/12/10 04:08:07;;;;;;;33.67;15.35;;;;;;;-1.12;100.00;97648.00;4995444;28;20468;-72
2022/12/10 04:10:37;;;;;;;34.75;16.67;;;;;;;-1.12;100.00;97648.81;4989100;28;20032;-72
2022/12/10 04:18:31;;;;;;;37.58;15.32;;;;;;;-1.04;100.00;97671.09;4985550;28;20057;-72
2022/12/10 04:29:09;;;;;;;31.55;14.38;;;;;;;-0.99;100.00;97671.47;4998525;28;20053;-72
2022/12/10 04:31:35;;;;;;;31.05;15.07;;;;;;;-0.90;100.00;97687.25;4988872;28;20128;-73
2022/12/10 04:34:00;;;;;;;34.00;15.13;;;;;;;-0.96;100.00;97674.63;5002101;28;20174;-72
2022/12/10 04:36:25;;;;;;;30.95;15.40;;;;;;;-0.85;100.00;97678.81;5000060;28;20200;-72
2022/12/10 04:38:51;;;;;;;37.20;15.50;;;;;;;-0.87;100.00;97678.13;4982773;28;20034;-72
2022/12/10 04:41:16;;;;;;;33.00;15.25;;;;;;;-0.84;100.00;97677.81;5001605;28;20408;-72
2022/12/10 04:43:42;;;;;;;37.78;14.95;;;;;;;-1.00;100.00;97659.97;4993949;28;20036;-72
2022/12/10 04:46:08;;;;;;;30.80;14.50;;;;;;;-0.79;100.00;97688.78;4986020;28;20523;-72
2022/12/10 04:48:34;;;;;;;37.88;17.63;;;;;;;-0.82;100.00;97689.09;4978649;28;20037;-72
2022/12/10 04:50:59;;;;;;;34.38;15.40;;;;;;;-0.77;100.00;97681.50;4986620;28;20034;-72
2022/12/10 04:53:24;;;;;;;37.38;16.33;;;;;;;-0.80;100.00;97679.16;4988890;28;20117;-72
2022/12/10 04:55:50;;;;;;;28.60;14.10;;;;;;;-0.83;100.00;97673.34;5003196;28;20033;-72
2022/12/10 04:58:15;;;;;;;33.25;15.20;;;;;;;-0.77;100.00;97683.34;4989754;28;20062;-72
2022/12/10 05:00:40;;;;;;;34.35;15.38;;;;;;;-0.78;100.00;97679.03;4990518;28;20030;-72
2022/12/10 05:03:05;;;;;;;34.92;14.98;;;;;;;-0.76;100.00;97685.84;4984521;28;20037;-72
2022/12/10 05:05:34;;;;;;;33.22;15.15;;;;;;;-0.69;100.00;97701.94;4989159;28;20759;-72
2022/12/10 05:07:59;;;;;;;34.33;15.20;;;;;;;-0.83;100.00;97679.50;4984232;28;20874;-72
2022/12/10 05:10:24;;;;;;;34.50;15.95;;;;;;;-0.74;100.00;97698.94;4985590;28;20026;-72
2022/12/10 05:12:50;;;;;;;35.00;15.13;;;;;;;-0.68;100.00;97714.25;4993088;28;20041;-71
2022/12/10 05:15:15;;;;;;;33.63;15.20;;;;;;;-0.88;100.00;97687.09;4983328;28;20033;-74
2022/12/10 05:17:41;;;;;;;31.50;14.38;;;;;;;-0.82;100.00;97699.72;4992767;28;20065;-75
2022/12/10 05:20:07;;;;;;;30.65;14.63;;;;;;;-0.74;100.00;97705.06;4993013;28;20534;-72
2022/12/10 05:25:16;;;;;;;30.60;14.18;;;;;;;-0.72;100.00;97703.09;4993707;28;20041;-73
2022/12/10 05:27:42;;;;;;;31.58;15.25;;;;;;;-0.80;100.00;97689.78;4991010;28;20038;-73
2022/12/10 05:30:09;;;;;;;35.00;15.50;;;;;;;-0.75;100.00;97698.13;5011435;28;20044;-72
2022/12/10 05:32:34;;;;;;;30.95;14.80;;;;;;;-0.78;100.00;97698.44;4996248;28;20100;-73
2022/12/10 05:34:59;;;;;;;34.10;15.98;;;;;;;-0.83;100.00;97700.72;5014361;28;20037;-72
2022/12/10 05:37:24;;;;;;;33.55;14.88;;;;;;;-0.77;100.00;97709.88;5000902;28;20420;-74
2022/12/10 05:39:50;;;;;;;35.47;15.80;;;;;;;-0.71;100.00;97710.09;5004541;28;20038;-76
2022/12/10 05:42:15;;;;;;;30.98;15.38;;;;;;;-0.77;100.00;97697.44;4993930;28;20444;-72
2022/12/10 05:44:40;;;;;;;34.20;15.80;;;;;;;-0.60;100.00;97708.13;4991856;28;20037;-75
2022/12/10 05:47:06;;;;;;;30.70;15.38;;;;;;;-0.83;100.00;97679.50;4995132;28;20082;-74
2022/12/10 05:49:31;;;;;;;32.10;15.27;;;;;;;-0.88;100.00;97677.31;4997979;28;20019;-73
2022/12/10 05:51:56;;;;;;;36.25;16.08;;;;;;;-0.74;100.00;97721.00;4997083;28;21257;-78
2022/12/10 05:54:21;;;;;;;34.53;15.65;;;;;;;-0.81;100.00;97701.41;4989437;28;20029;-78
2022/12/10 05:56:47;;;;;;;36.25;16.55;;;;;;;-0.90;100.00;97702.34;4994662;28;20053;-71
2022/12/10 05:59:12;;;;;;;34.83;16.75;;;;;;;-0.76;100.00;97730.97;4996811;28;20064;-75
2022/12/10 06:01:37;;;;;;;36.30;15.90;;;;;;;-0.75;100.00;97724.66;4995534;28;20034;-78
2022/12/10 06:04:04;;;;;;;37.35;15.77;;;;;;;-0.69;100.00;97734.66;5007474;28;20485;-76
2022/12/10 06:06:34;;;;;;;40.50;16.83;;;;;;;-0.68;100.00;97736.34;4995484;28;20049;-75
2022/12/10 06:08:59;;;;;;;;;;;;;;;-0.69;100.00;97736.47;4997562;28;20029;-73
2022/12/10 06:11:26;;;;;;;38.40;15.30;;;;;;;-0.72;100.00;97740.28;5010030;28;19914;-73
2022/12/10 06:13:52;;;;;;;34.92;15.77;;;;;;;-0.68;100.00;97736.34;4989844;28;20034;-77
2022/12/10 06:16:17;;;;;;;37.65;16.30;;;;;;;-0.81;100.00;97712.03;4994741;28;20623;-75
2022/12/10 06:18:43;;;;;;;36.70;16.13;;;;;;;-0.63;100.00;97717.25;4990758;28;20117;-77
2022/12/10 06:21:12;;;;;;;31.63;14.98;;;;;;;-0.67;100.00;97714.09;4995053;28;20117;-76
2022/12/10 06:23:38;;;;;;;38.63;16.85;;;;;;;-0.71;100.00;97720.72;4994978;28;20038;-74
2022/12/10 06:26:05;;;;;;;32.20;15.20;;;;;;;-0.63;100.00;97733.19;4995151;28;20030;-76
2022/12/10 06:28:31;;;;;;;36.55;16.58;;;;;;;-0.92;100.00;97688.41;4996137;28;20031;-77
2022/12/10 06:30:58;;;;;;;33.65;15.63;;;;;;;-0.72;100.00;97734.97;4999648;28;20088;-75
2022/12/10 06:33:24;;;;;;;32.10;15.07;;;;;;;-0.68;100.00;97741.66;4995075;28;20033;-75
2022/12/10 06:35:49;;;;;;;34.22;15.85;;;;;;;-0.64;100.00;97742.16;4992964;28;20030;-74
2022/12/10 06:38:14;;;;;;;37.05;16.20;;;;;;;-0.69;100.00;97739.97;4992840;28;20396;-74
2022/12/10 06:40:40;;;;;;;36.35;16.08;;;;;;;-0.60;100.00;97756.78;4995575;28;20117;-75
2022/12/10 06:43:06;;;;;;;35.92;16.02;;;;;;;-0.75;100.00;97734.47;4994196;28;20034;-75
2022/12/10 06:45:31;;;;;;;38.00;16.60;;;;;;;-0.63;100.00;97748.28;4993785;28;20038;-73
2022/12/10 06:47:56;;;;;;;35.92;16.00;;;;;;;-0.74;100.00;97739.59;5001723;28;20472;-73
2022/12/10 06:50:22;;;;;;;30.63;14.50;;;;;;;-0.61;100.00;97759.59;4991744;28;20034;-74
2022/12/10 06:52:49;;;;;;;31.35;14.60;;;;;;;-0.70;100.00;97740.13;4993823;28;20492;-73
2022/12/10 06:55:14;;;;;;;33.13;15.15;;;;;;;-0.60;100.00;97762.09;5007559;28;20027;-73
2022/12/10 06:57:40;;;;;;;31.42;14.95;;;;;;;-0.55;100.00;97759.81;4990219;28;20093;-73
2022/12/10 07:00:05;;;;;;;33.22;15.05;;;;;;;-0.51;100.00;97757.66;4989440;28;20050;-77
2022/12/10 07:02:31;;;;;;;30.48;14.48;;;;;;;-0.50;100.00;97738.91;4987805;28;20084;-72
2022/12/10 07:04:56;;;;;;;30.90;15.45;;;;;;;-0.47;100.00;97754.53;4985433;28;20085;-72
2022/12/10 07:07:22;;;;;;;31.25;15.50;;;;;;;-0.61;100.00;97746.31;4988477;28;20113;-71
2022/12/10 07:09:47;;;;;;;32.60;15.57;;;;;;;-0.59;100.00;97747.81;4982049;28;20377;-71
2022/12/10 07:12:12;;;;;;;35.60;16.13;;;;;;;-0.70;100.00;97738.31;4988709;28;20504;-72
2022/12/10 07:14:38;;;;;;;33.28;15.65;;;;;;;-0.59;100.00;97754.97;4998413;28;20138;-71
2022/12/10 07:17:05;;;;;;;37.58;16.52;;;;;;;-0.56;100.00;97763.44;4993337;28;20046;-72
2022/12/10 07:19:30;;;;;;;33.38;15.45;;;;;;;-0.55;100.00;97758.94;5001765;28;20118;-71
2022/12/10 07:21:55;;;;;;;34.00;16.45;;;;;;;-0.63;100.00;97756.25;4998554;28;20117;-72
2022/12/10 07:24:21;;;;;;;34.08;15.80;;;;;;;-0.67;100.00;97753.09;4998553;28;20045;-71
2022/12/10 07:26:46;;;;;;;34.22;15.73;;;;;;;-0.55;100.00;97772.22;4987816;28;20022;-71
2022/12/10 07:29:22;;;;;;;32.83;16.08;;;;;;;-0.61;100.00;97751.63;4988697;28;20556;-72
2022/12/10 07:31:48;;;;;;;35.83;14.82;;;;;;;-0.58;100.00;97769.91;4991835;28;20026;-77
2022/12/10 07:34:14;;;;;;;38.70;16.70;;;;;;;-0.54;100.00;97772.09;4988883;28;20072;-77
2022/12/10 07:36:39;;;;;;;33.47;16.45;;;;;;;-0.61;100.00;97756.94;4991349;28;20116;-78
2022/12/10 07:39:07;;;;;;;36.70;16.38;;;;;;;-0.52;100.00;97772.78;4988512;28;20496;-78
2022/12/10 07:41:33;;;;;;;35.58;15.65;;;;;;;-0.38;100.00;97784.63;4994626;28;20022;-75
2022/12/10 07:43:58;;;;;;;39.28;16.20;;;;;;;-0.36;100.00;97772.00;5007467;28;20076;-75
2022/12/10 07:46:26;;;;;;;39.08;16.52;;;;;;;-0.19;100.00;97793.31;5000246;28;20034;-77
2022/12/10 07:48:53;;;;;;;32.63;15.65;;;;;;;-0.22;100.00;97779.34;5001331;28;20081;-77
2022/12/10 07:51:21;;;;;;;34.80;15.68;;;;;;;-0.11;100.00;97790.69;5019895;28;20030;-78
2022/12/10 07:53:47;;;;;;;37.45;15.98;;;;;;;0.02;100.00;97800.88;5031142;28;20040;-78
2022/12/10 07:56:13;;;;;;;29.02;15.35;;;;;;;0.07;100.00;97809.22;5014070;28;20118;-77
2022/12/10 07:58:43;;;;;;;34.28;16.05;;;;;;;0.08;100.00;97806.41;5029797;28;20018;-78
2022/12/10 08:01:11;;;;;;;35.08;16.48;;;;;;;-0.14;100.00;97767.09;5014329;28;20050;-79
2022/12/10 08:03:40;;;;;;;32.42;15.32;;;;;;;0.17;100.00;97810.72;5015497;28;20030;-79
2022/12/10 08:06:08;;;;;;;29.52;15.20;;;;;;;0.11;100.00;97779.47;5014694;28;20030;-78
2022/12/10 08:08:35;;;;;;;32.72;15.65;;;;;;;0.28;100.00;97803.44;5009491;28;20054;-76
2022/12/10 08:11:02;;;;;;;38.33;17.08;;;;;;;0.40;100.00;97807.47;5008891;28;20033;-78
2022/12/10 08:13:29;;;;;;;30.25;15.63;;;;;;;0.33;100.00;97803.78;5027484;23;20557;-58
2022/12/10 08:16:03;;;;;;;33.00;15.85;;;;;;;0.46;100.00;97800.66;5003620;28;20025;-58
2022/12/10 08:18:30;;;;;;;33.13;15.35;;;;;;;0.47;100.00;97805.81;5008791;28;20442;-58
2022/12/10 08:20:55;;;;;;;30.65;15.38;;;;;;;0.53;100.00;97810.50;5005225;28;20175;-58
2022/12/10 08:23:21;;;;;;;31.92;15.48;;;;;;;0.50;100.00;97804.63;5005397;28;20529;-58
2022/12/10 08:25:46;;;;;;;33.28;15.77;;;;;;;0.39;100.00;97796.00;5001945;28;20585;-58
2022/12/10 08:28:11;;;;;;;34.40;15.88;;;;;;;0.58;100.00;97813.50;5006698;28;20030;-58
2022/12/10 08:30:37;;;;;;;30.92;15.52;;;;;;;0.87;100.00;97813.00;5020779;28;20116;-58
2022/12/10 08:33:02;;;;;;;32.55;15.40;;;;;;;1.05;100.00;97818.16;5016867;28;20036;-58
2022/12/10 08:35:28;;;;;;;29.73;13.77;;;;;;;1.14;100.00;97824.31;5010183;28;20065;-58
2022/12/10 08:37:54;;;;;;;30.20;14.02;;;;;;;1.13;100.00;97817.34;4995791;28;20025;-58
2022/12/10 08:40:20;;;;;;;28.00;14.43;;;;;;;1.24;100.00;97813.50;5002680;28;20516;-58
2022/12/10 08:42:45;;;;;;;29.42;14.18;;;;;;;1.23;100.00;97819.78;5006860;28;20030;-58
2022/12/10 08:45:11;;;;;;;30.25;14.73;;;;;;;1.25;100.00;97815.97;5009310;28;20030;-58
2022/12/10 08:47:36;;;;;;;31.15;14.80;;;;;;;1.13;100.00;97809.34;5008916;28;20034;-58
2022/12/10 08:50:01;;;;;;;28.80;14.90;;;;;;;1.26;100.00;97816.81;5015216;28;20030;-58
2022/12/10 08:52:29;;;;;;;26.00;13.77;;;;;;;1.19;100.00;97794.50;5006811;28;20026;-58
2022/12/10 08:54:54;;;;;;;29.33;14.43;;;;;;;1.22;100.00;97810.97;5009604;28;20447;-58
2022/12/10 08:57:20;;;;;;;29.98;15.25;;;;;;;1.40;100.00;97802.78;5010326;28;20125;-58
2022/12/10 08:59:45;;;;;;;34.78;15.48;;;;;;;1.40;100.00;97808.13;5016620;28;20064;-58
2022/12/10 09:02:11;;;;;;;30.67;14.70;;;;;;;1.29;100.00;97805.81;5007962;28;20481;-58
2022/12/10 09:04:36;;;;;;;30.77;14.23;;;;;;;1.43;100.00;97812.28;5009195;28;20056;-58
2022/12/10 09:07:03;;;;;;;30.80;13.50;;;;;;;1.73;100.00;97811.53;5007121;28;20034;-58
2022/12/10 09:09:28;;;;;;;29.45;14.82;;;;;;;1.67;100.00;97809.53;5003175;28;20440;-58
2022/12/10 09:11:54;;;;;;;25.80;12.90;;;;;;;1.75;100.00;97814.84;5007631;28;20029;-58
2022/12/10 09:14:19;;;;;;;29.33;13.85;;;;;;;1.97;100.00;97815.94;5008702;28;20112;-58
2022/12/10 09:16:45;;;;;;;27.45;13.63;;;;;;;2.05;100.00;97816.94;5008579;28;20545;-58
2022/12/10 09:19:10;;;;;;;28.30;13.25;;;;;;;2.04;100.00;97817.91;5002654;28;20044;-58
2022/12/10 09:21:36;;;;;;;27.77;13.63;;;;;;;2.10;100.00;97819.91;4998826;28;20405;-59
2022/12/10 09:24:01;;;;;;;29.25;13.38;;;;;;;2.14;100.00;97830.03;5006376;28;20385;-58
2022/12/10 09:26:27;;;;;;;27.00;12.88;;;;;;;2.21;100.00;97827.53;5008686;28;20381;-60
2022/12/10 09:28:54;;;;;;;28.13;13.38;;;;;;;2.32;100.00;97824.44;5008422;28;20114;-60
2022/12/10 09:31:20;;;;;;;26.10;13.82;;;;;;;2.28;100.00;97828.50;5006883;28;20033;-60
2022/12/10 09:33:46;;;;;;;24.45;12.80;;;;;;;2.36;100.00;97819.63;4998487;28;20060;-60
2022/12/10 09:36:13;;;;;;;29.05;13.93;;;;;;;2.21;100.00;97808.84;4996562;28;20038;-60
2022/12/10 09:38:41;;;;;;;27.30;14.27;;;;;;;2.27;100.00;97816.13;5003135;28;20029;-60
2022/12/10 09:41:35;;;;;;;28.85;12.75;;;;;;;2.36;100.00;97815.09;5007357;28;20436;-60
2022/12/10 09:44:31;;;;;;;25.23;13.88;;;;;;;2.49;100.00;97814.53;5003006;28;20013;-60
2022/12/10 09:47:03;;;;;;;26.20;13.45;;;;;;;2.54;100.00;97817.50;5011274;28;20018;-61
2022/12/10 09:49:50;;;;;;;24.23;12.50;;;;;;;2.82;100.00;97828.47;5007936;28;20037;-60
2022/12/10 09:52:24;;;;;;;24.63;11.93;;;;;;;3.05;100.00;97824.97;5006686;28;20130;-60
2022/12/10 09:55:04;;;;;;;22.67;12.18;;;;;;;3.19;100.00;97826.84;5004240;28;20030;-60
2022/12/10 09:57:49;;;;;;;22.35;12.45;;;;;;;3.21;100.00;97824.00;5019128;28;20022;-60
2022/12/10 10:00:32;;;;;;;22.95;12.20;;;;;;;3.29;100.00;97831.94;5027715;28;20126;-60
2022/12/10 10:02:59;;;;;;;22.75;11.98;;;;;;;3.24;100.00;97831.66;4991637;28;20026;-60
2022/12/10 10:05:26;;;;;;;27.35;12.68;;;;;;;3.19;100.00;97829.50;4996050;28;20046;-60
2022/12/10 10:07:54;;;;;;;23.27;12.93;;;;;;;3.27;100.00;97824.13;5005935;28;20604;-60
2022/12/10 10:10:23;;;;;;;26.45;12.50;;;;;;;3.32;100.00;97830.75;5021126;28;20029;-60
2022/12/10 10:12:51;;;;;;;25.00;12.32;;;;;;;3.58;100.00;97833.81;5013138;28;20033;-60
2022/12/10 10:15:24;;;;;;;22.25;12.40;;;;;;;3.77;100.00;97823.59;5005157;28;20406;-60
2022/12/10 10:17:53;;;;;;;25.48;13.70;;;;;;;3.79;100.00;97833.09;5007285;28;20104;-59
2022/12/10 10:20:19;;;;;;;21.60;12.45;;;;;;;4.16;100.00;97834.00;5007812;28;20041;-60
2022/12/10 10:22:45;;;;;;;21.67;12.75;;;;;;;4.30;100.00;97829.69;4994551;28;20034;-60
2022/12/10 10:25:19;;;;;;;25.48;12.77;;;;;;;4.18;100.00;97832.81;5003003;28;20037;-61
2022/12/10 10:27:45;;;;;;;24.63;13.27;;;;;;;4.44;100.00;97825.31;4997831;28;20470;-60
2022/12/10 10:30:17;;;;;;;22.67;12.68;;;;;;;4.94;100.00;97827.06;5014236;28;20096;-60
2022/12/10 10:32:45;;;;;;;21.48;12.63;;;;;;;5.15;100.00;97820.88;5007662;28;20381;-61
2022/12/10 10:35:32;;;;;;;24.30;12.20;;;;;;;5.16;100.00;97817.19;5019096;28;20123;-61
2022/12/10 10:38:13;;;;;;;25.13;12.40;;;;;;;5.01;100.00;97821.78;5002267;28;20108;-60
2022/12/10 10:40:45;;;;;;;20.83;11.68;;;;;;;5.02;100.00;97812.69;5000870;28;20053;-60
2022/12/10 10:43:25;;;;;;;19.80;11.48;;;;;;;5.19;100.00;97824.00;5009488;28;20104;-61
2022/12/10 10:45:58;;;;;;;22.45;11.90;;;;;;;4.87;100.00;97825.34;5005322;28;20045;-60
2022/12/10 10:48:26;;;;;;;20.83;11.63;;;;;;;5.17;100.00;97815.31;5009311;28;20036;-60
2022/12/10 10:51:20;;;;;;;20.13;11.27;;;;;;;5.00;100.00;97799.50;5003350;28;20032;-60
2022/12/10 10:53:54;;;;;;;19.83;10.93;;;;;;;5.00;100.00;97817.41;5002424;28;20541;-60
2022/12/10 10:56:24;;;;;;;18.83;10.77;;;;;;;4.98;100.00;97814.13;5004309;28;20397;-60
2022/12/10 10:59:05;;;;;;;19.10;11.35;;;;;;;4.40;100.00;97816.78;5006826;28;20033;-59
2022/12/10 11:01:54;;;;;;;21.77;11.93;;;;;;;4.12;100.00;97822.84;5004815;28;20026;-59
2022/12/10 11:04:36;;;;;;;20.33;11.70;;;;;;;3.88;100.00;97815.13;5016272;28;20204;-59
2022/12/10 11:07:04;;;;;;;21.35;12.27;;;;;;;3.57;100.00;97824.16;5011412;28;20037;-59
2022/12/10 11:09:33;;;;;;;24.70;13.32;;;;;;;3.22;100.00;97831.00;5022325;28;20052;-59
2022/12/10 11:12:00;;;;;;;;;;;;;;;3.27;100.00;97839.31;5011156;28;20034;-59
2022/12/10 11:14:30;;;;;;;23.90;12.18;;;;;;;3.72;100.00;97840.19;5015649;28;20072;-59
2022/12/10 11:17:09;;;;;;;24.42;12.73;;;;;;;4.02;100.00;97848.25;5005835;28;20044;-59
2022/12/10 11:19:35;;;;;;;26.02;12.93;;;;;;;4.54;100.00;97841.91;5022504;28;20026;-59
2022/12/10 11:22:21;;;;;;;20.98;11.93;;;;;;;4.69;100.00;97831.97;5018239;28;20517;-59
2022/12/10 11:24:48;;;;;;;23.13;11.93;;;;;;;5.18;100.00;97839.25;5004318;28;20374;-60
2022/12/10 11:27:58;;;;;;;25.13;12.95;;;;;;;5.54;100.00;97835.63;5008654;28;20521;-59
2022/12/10 11:30:26;;;;;;;20.88;11.93;;;;;;;5.71;100.00;97838.81;4973313;28;20462;-59
2022/12/10 11:33:10;;;;;;;24.50;11.52;;;;;;;6.03;100.00;97837.44;4997442;28;20042;-59
2022/12/10 11:36:13;;;;;;;18.73;11.05;;;;;;;6.60;100.00;97832.69;5003530;28;20025;-59
2022/12/10 11:39:03;;;;;;;21.60;12.20;;;;;;;6.35;100.00;97835.09;5002953;28;20014;-59